createdAt,value
2019-03-02T00:02:05.178Z,3.23
2019-03-02T00:04:34.792Z,3.63
2019-03-02T00:07:04.427Z,1.30
2019-03-02T00:09:34.621Z,3.63
2019-03-02T00:12:04.276Z,5.73
2019-03-02T00:14:33.903Z,3.43
2019-03-02T00:17:03.541Z,3.07
2019-03-02T00:19:33.152Z,3.97
2019-03-02T00:22:06.574Z,1.87
2019-03-02T00:24:34.105Z,7.00
2019-03-02T00:27:03.731Z,1.80
2019-03-02T00:29:33.365Z,2.50
2019-03-02T00:32:05.887Z,4.27
2019-03-02T00:34:34.336Z,1.43
2019-03-02T00:37:03.968Z,4.03
2019-03-02T00:39:33.583Z,3.33
2019-03-02T00:42:03.209Z,2.07
2019-03-02T00:44:35.739Z,1.57
2019-03-02T00:47:04.099Z,3.27
2019-03-02T00:49:33.854Z,1.03
2019-03-02T00:52:03.561Z,3.63
2019-03-02T00:54:33.179Z,4.83
2019-03-02T00:57:02.810Z,4.27
2019-03-02T00:59:32.411Z,3.37
2019-03-02T01:02:04.331Z,1.97
2019-03-02T01:04:33.485Z,1.13
2019-03-02T01:07:03.143Z,5.67
2019-03-02T01:09:32.756Z,4.10
2019-03-02T01:12:02.381Z,2.10
2019-03-02T01:14:33.109Z,2.77
2019-03-02T01:17:02.775Z,4.90
2019-03-02T01:19:32.411Z,1.50
2019-03-02T01:22:02.035Z,3.67
2019-03-02T01:24:31.655Z,3.63
2019-03-02T01:27:01.976Z,3.97
2019-03-02T01:29:31.608Z,4.50
2019-03-02T01:32:01.274Z,2.47
2019-03-02T01:34:30.872Z,4.03
2019-03-02T01:37:00.505Z,2.97
2019-03-02T01:39:30.149Z,2.17
2019-03-02T01:41:59.733Z,4.43
2019-03-02T01:44:29.360Z,2.33
2019-03-02T01:46:58.979Z,2.33
2019-03-02T01:49:28.692Z,6.50
2019-03-02T01:51:59.095Z,3.23
2019-03-02T01:54:28.860Z,4.30
2019-03-02T01:56:58.557Z,2.60
2019-03-02T01:59:28.175Z,3.60
2019-03-02T02:02:00.150Z,4.93
2019-03-02T02:04:29.068Z,4.30
2019-03-02T02:06:58.665Z,4.97
2019-03-02T02:09:28.340Z,3.23
2019-03-02T02:11:57.963Z,4.90
2019-03-02T02:14:27.575Z,4.93
2019-03-02T02:16:57.201Z,3.07
2019-03-02T02:19:26.809Z,4.70
2019-03-02T02:21:58.816Z,5.37
2019-03-02T02:24:27.803Z,4.77
2019-03-02T02:26:57.419Z,6.70
2019-03-02T02:29:27.016Z,3.77
2019-03-02T02:31:56.693Z,4.13
2019-03-02T02:34:26.285Z,2.13
2019-03-02T02:36:58.127Z,5.60
2019-03-02T02:39:28.916Z,3.10
2019-03-02T02:41:59.995Z,6.73
2019-03-02T02:44:33.177Z,6.53
2019-03-02T02:47:01.119Z,17.67
2019-03-02T02:49:30.737Z,4.90
2019-03-02T02:52:00.440Z,5.10
2019-03-02T02:54:30.055Z,3.60
2019-03-02T02:57:00.595Z,4.57
2019-03-02T02:59:33.952Z,3.00
2019-03-02T03:02:01.734Z,2.10
2019-03-02T03:04:32.534Z,4.67
2019-03-02T03:07:07.202Z,7.77
2019-03-02T03:09:50.846Z,4.90
2019-03-02T03:12:22.765Z,4.80
2019-03-02T03:14:54.149Z,5.57
2019-03-02T03:17:23.108Z,3.20
2019-03-02T03:19:52.716Z,4.73
2019-03-02T03:22:22.307Z,7.77
2019-03-02T03:24:51.941Z,5.27
2019-03-02T03:27:21.565Z,7.67
2019-03-02T03:29:51.349Z,7.13
2019-03-02T03:32:21.121Z,5.70
2019-03-02T03:34:50.761Z,4.37
2019-03-02T03:37:59.064Z,4.63
2019-03-02T03:40:28.901Z,7.07
2019-03-02T03:43:03.082Z,2.83
2019-03-02T03:45:29.965Z,5.13
2019-03-02T03:47:59.560Z,4.53
2019-03-02T03:50:29.204Z,5.67
2019-03-02T03:52:58.845Z,6.70
2019-03-02T03:55:28.565Z,4.23
2019-03-02T03:58:00.492Z,6.43
2019-03-02T04:01:00.841Z,7.33
2019-03-02T04:03:30.448Z,5.30
2019-03-02T04:06:00.044Z,4.37
2019-03-02T04:08:29.984Z,4.30
2019-03-02T04:11:00.305Z,6.33
2019-03-02T04:13:30.901Z,4.77
2019-03-02T04:16:00.550Z,3.93
2019-03-02T04:18:55.121Z,5.23
2019-03-02T04:21:27.910Z,5.43
2019-03-02T04:23:56.293Z,6.90
2019-03-02T04:26:31.246Z,4.90
2019-03-02T04:28:57.683Z,6.33
2019-03-02T04:31:27.297Z,4.30
2019-03-02T04:33:56.972Z,4.13
2019-03-02T04:36:26.593Z,4.07
2019-03-02T04:38:56.185Z,6.17
2019-03-02T04:41:25.796Z,7.70
2019-03-02T04:43:55.501Z,5.03
2019-03-02T04:46:25.108Z,5.30
2019-03-02T04:48:54.748Z,6.93
2019-03-02T04:51:24.379Z,5.40
2019-03-02T04:53:54.003Z,5.97
2019-03-02T04:56:24.104Z,2.90
2019-03-02T04:58:54.755Z,4.47
2019-03-02T05:01:24.359Z,2.73
2019-03-02T05:03:57.234Z,4.27
2019-03-02T05:06:25.260Z,4.13
2019-03-02T05:08:54.889Z,6.30
2019-03-02T05:11:24.512Z,9.20
2019-03-02T05:13:54.140Z,7.30
2019-03-02T05:16:25.557Z,5.43
2019-03-02T05:18:55.099Z,3.00
2019-03-02T05:21:24.704Z,5.37
2019-03-02T05:23:54.307Z,4.10
2019-03-02T05:26:23.959Z,2.47
2019-03-02T05:28:53.575Z,3.57
2019-03-02T05:31:23.184Z,6.07
2019-03-02T05:33:52.803Z,3.57
2019-03-02T05:36:22.974Z,3.70
2019-03-02T05:38:53.675Z,3.27
2019-03-02T05:41:23.290Z,6.23
2019-03-02T05:43:52.883Z,2.53
2019-03-02T05:46:25.549Z,1.83
2019-03-02T05:48:53.817Z,2.77
2019-03-02T05:51:23.416Z,3.73
2019-03-02T05:53:53.039Z,2.83
2019-03-02T05:56:26.008Z,4.60
2019-03-02T05:58:54.019Z,5.70
2019-03-02T06:01:23.623Z,2.73
2019-03-02T06:03:53.256Z,1.50
2019-03-02T06:06:22.884Z,4.13
2019-03-02T06:08:52.484Z,2.53
2019-03-02T06:11:22.103Z,1.67
2019-03-02T06:13:51.731Z,3.40
2019-03-02T06:16:21.927Z,2.77
2019-03-02T06:18:52.440Z,3.30
2019-03-02T06:21:22.072Z,3.30
2019-03-02T06:23:51.676Z,1.53
2019-03-02T06:26:21.295Z,2.43
2019-03-02T06:28:50.907Z,1.70
2019-03-02T06:31:20.519Z,1.70
2019-03-02T06:33:50.131Z,2.43
2019-03-02T06:36:19.752Z,2.00
2019-03-02T06:38:49.475Z,2.93
2019-03-02T06:41:19.104Z,3.23
2019-03-02T06:43:48.756Z,2.00
2019-03-02T06:46:19.885Z,1.77
2019-03-02T06:48:50.624Z,2.00
2019-03-02T06:51:20.260Z,5.43
2019-03-02T06:53:49.891Z,2.77
2019-03-02T06:56:19.508Z,2.27
2019-03-02T06:58:49.107Z,1.80
2019-03-02T07:01:20.754Z,2.73
2019-03-02T07:03:50.044Z,2.77
2019-03-02T07:06:19.684Z,2.73
2019-03-02T07:08:49.392Z,7.33
2019-03-02T07:11:18.991Z,2.50
2019-03-02T07:13:48.580Z,4.83
2019-03-02T07:16:20.045Z,9.90
2019-03-02T07:19:13.455Z,2.87
2019-03-02T07:21:42.701Z,4.20
2019-03-02T07:24:12.248Z,5.83
2019-03-02T07:26:41.844Z,4.37
2019-03-02T07:29:13.861Z,6.70
2019-03-02T07:31:42.723Z,4.87
2019-03-02T07:34:12.348Z,4.67
2019-03-02T07:36:42.000Z,4.33
2019-03-02T07:39:11.608Z,4.13
2019-03-02T07:41:41.220Z,5.37
2019-03-02T07:44:10.879Z,4.70
2019-03-02T07:46:43.983Z,3.00
2019-03-02T07:49:13.026Z,2.77
2019-03-02T07:51:42.763Z,3.87
2019-03-02T07:54:12.415Z,5.73
2019-03-02T07:56:42.056Z,3.93
2019-03-02T07:59:11.676Z,4.93
2019-03-02T08:01:41.271Z,4.50
2019-03-02T08:04:10.900Z,7.00
2019-03-02T08:06:40.504Z,4.67
2019-03-02T08:09:10.120Z,5.93
2019-03-02T08:11:39.743Z,5.00
2019-03-02T08:14:12.264Z,5.23
2019-03-02T08:16:40.653Z,4.73
2019-03-02T08:19:10.262Z,4.50
2019-03-02T08:21:39.870Z,5.93
2019-03-02T08:24:09.494Z,6.53
2019-03-02T08:26:39.108Z,4.00
2019-03-02T08:29:08.736Z,4.90
2019-03-02T08:31:38.395Z,3.53
2019-03-02T08:34:09.760Z,7.40
2019-03-02T08:36:39.282Z,10.33
2019-03-02T08:39:10.761Z,4.63
2019-03-02T08:41:40.172Z,6.50
2019-03-02T08:44:09.772Z,5.70
2019-03-02T08:46:39.421Z,7.93
2019-03-02T08:49:09.080Z,9.20
2019-03-02T08:51:38.720Z,7.43
2019-03-02T08:54:08.352Z,6.60
2019-03-02T08:56:38.020Z,8.80
2019-03-02T08:59:07.693Z,6.47
2019-03-02T09:01:37.299Z,11.40
2019-03-02T09:04:10.203Z,6.57
2019-03-02T09:06:38.226Z,10.93
2019-03-02T09:09:09.605Z,9.40
2019-03-02T09:11:40.894Z,5.07
2019-03-02T09:14:12.696Z,5.37
2019-03-02T09:16:42.558Z,11.17
2019-03-02T09:19:12.219Z,8.07
2019-03-02T09:21:44.718Z,7.03
2019-03-02T09:24:14.212Z,6.97
2019-03-02T09:26:43.842Z,8.77
2019-03-02T09:29:13.472Z,15.47
2019-03-02T09:31:43.701Z,6.67
2019-03-02T09:34:13.324Z,17.17
2019-03-02T09:36:43.589Z,10.57
2019-03-02T09:39:14.848Z,12.40
2019-03-02T09:41:45.088Z,10.30
2019-03-02T09:44:14.814Z,6.90
2019-03-02T09:47:05.077Z,4.33
2019-03-02T09:49:37.459Z,12.47
2019-03-02T09:52:07.279Z,8.40
2019-03-02T09:54:36.904Z,6.83
2019-03-02T09:57:06.528Z,16.00
2019-03-02T09:59:36.199Z,7.30
2019-03-02T10:02:06.101Z,6.33
2019-03-02T10:04:38.987Z,9.90
2019-03-02T10:07:07.044Z,8.63
2019-03-02T10:09:36.667Z,7.20
2019-03-02T10:12:06.295Z,13.83
2019-03-02T10:14:35.922Z,9.93
2019-03-02T10:17:05.668Z,11.77
2019-03-02T10:19:35.269Z,9.40
2019-03-02T10:22:05.180Z,8.27
2019-03-02T10:24:35.219Z,10.80
2019-03-02T10:27:06.040Z,7.37
2019-03-02T10:29:35.789Z,10.57
2019-03-02T10:32:05.444Z,12.30
2019-03-02T10:34:38.376Z,6.40
2019-03-02T10:37:07.265Z,14.03
2019-03-02T10:39:37.668Z,9.03
2019-03-02T10:42:07.275Z,10.37
2019-03-02T10:44:49.281Z,8.03
2019-03-02T10:47:18.904Z,13.40
2019-03-02T10:49:49.236Z,9.60
2019-03-02T10:52:19.052Z,4.90
2019-03-02T10:54:48.675Z,7.00
2019-03-02T10:57:18.499Z,9.20
2019-03-02T10:59:51.787Z,13.67
2019-03-02T11:02:20.146Z,8.93
2019-03-02T11:04:55.316Z,8.93
2019-03-02T11:07:44.894Z,23.53
2019-03-02T11:10:31.833Z,36.40
2019-03-02T11:13:22.102Z,23.80
2019-03-02T11:16:05.227Z,16.43
2019-03-02T11:18:56.039Z,11.83
2019-03-02T11:21:49.599Z,14.30
2019-03-02T11:24:37.072Z,12.73
2019-03-02T11:27:34.659Z,6.93
2019-03-02T11:30:16.392Z,15.87
2019-03-02T11:33:07.731Z,19.60
2019-03-02T11:36:13.874Z,13.47
2019-03-02T11:39:01.804Z,15.43
2019-03-02T11:41:50.337Z,10.80
2019-03-02T11:44:57.050Z,10.33
2019-03-02T11:47:48.408Z,11.77
2019-03-02T11:50:46.938Z,12.77
2019-03-02T11:53:25.845Z,10.27
2019-03-02T11:56:12.968Z,9.37
2019-03-02T11:59:01.532Z,11.40
2019-03-02T12:01:48.847Z,10.40
2019-03-02T12:04:40.247Z,13.63
2019-03-02T12:07:41.973Z,13.50
2019-03-02T12:10:33.842Z,14.50
2019-03-02T12:13:31.568Z,14.00
2019-03-02T12:16:13.550Z,17.47
2019-03-02T12:19:00.911Z,11.43
2019-03-02T12:21:49.468Z,12.33
2019-03-02T12:24:37.987Z,12.20
2019-03-02T12:27:26.522Z,10.53
2019-03-02T12:30:03.148Z,17.87
2019-03-02T12:32:57.962Z,11.90
2019-03-02T12:35:40.534Z,24.07
2019-03-02T12:38:20.805Z,20.93
2019-03-02T12:41:21.823Z,24.73
2019-03-02T12:44:10.369Z,15.13
2019-03-02T12:46:51.771Z,9.47
2019-03-02T12:49:35.924Z,9.57
2019-03-02T12:52:19.204Z,10.83
2019-03-02T12:54:50.617Z,13.97
2019-03-02T12:57:41.344Z,11.07
2019-03-02T13:00:38.103Z,17.47
2019-03-02T13:03:38.845Z,13.10
2019-03-02T13:06:23.359Z,11.73
2019-03-02T13:09:05.340Z,11.27
2019-03-02T13:11:56.888Z,22.63
2019-03-02T13:15:00.749Z,15.57
2019-03-02T13:17:52.047Z,12.87
2019-03-02T13:20:49.516Z,22.93
2019-03-02T13:23:42.605Z,15.37
2019-03-02T13:26:40.509Z,11.80
2019-03-02T13:29:27.876Z,9.83
2019-03-02T13:32:20.084Z,9.97
2019-03-02T13:35:09.616Z,11.67
2019-03-02T13:37:45.656Z,17.37
2019-03-02T13:40:36.602Z,11.17
2019-03-02T13:43:15.468Z,17.87
2019-03-02T13:46:03.246Z,16.40
2019-03-02T13:49:01.758Z,13.97
2019-03-02T13:51:45.360Z,15.93
2019-03-02T13:54:33.890Z,14.80
2019-03-02T13:57:14.971Z,29.90
2019-03-02T14:00:07.627Z,14.00
2019-03-02T14:02:58.512Z,18.73
2019-03-02T14:05:47.080Z,14.27
2019-03-02T14:08:50.867Z,16.77
2019-03-02T14:11:39.743Z,14.07
2019-03-02T14:14:17.346Z,11.60
2019-03-02T14:17:11.868Z,13.27
2019-03-02T14:20:01.736Z,11.63
2019-03-02T14:22:54.092Z,10.60
2019-03-02T14:25:51.627Z,22.23
2019-03-02T14:28:36.347Z,14.20
2019-03-02T14:31:19.845Z,15.83
2019-03-02T14:34:14.354Z,16.37
2019-03-02T14:36:52.949Z,27.23
2019-03-02T14:39:44.833Z,12.17
2019-03-02T14:42:43.470Z,16.27
2019-03-02T14:45:39.226Z,11.00
2019-03-02T14:48:33.599Z,15.70
2019-03-02T14:51:25.112Z,28.13
2019-03-02T14:54:12.272Z,9.67
2019-03-02T14:56:54.283Z,9.10
2019-03-02T14:59:41.628Z,10.03
2019-03-02T15:02:33.193Z,12.17
2019-03-02T15:05:33.381Z,12.50
2019-03-02T15:08:07.737Z,12.90
2019-03-02T15:10:47.868Z,17.07
2019-03-02T15:13:45.358Z,12.20
2019-03-02T15:16:38.088Z,12.10
2019-03-02T15:19:28.186Z,15.27
2019-03-02T15:22:05.080Z,12.07
2019-03-02T15:24:57.386Z,13.93
2019-03-02T15:28:04.364Z,13.50
2019-03-02T15:30:59.316Z,12.63
2019-03-02T15:33:44.887Z,10.80
2019-03-02T15:36:43.954Z,11.33
2019-03-02T15:39:49.310Z,8.93
2019-03-02T15:42:44.300Z,12.90
2019-03-02T15:45:31.727Z,9.87
2019-03-02T15:48:17.912Z,12.43
2019-03-02T15:50:56.848Z,11.17
2019-03-02T15:53:48.396Z,12.30
2019-03-02T15:56:43.787Z,14.90
2019-03-02T15:59:36.075Z,15.37
2019-03-02T16:02:18.329Z,14.03
2019-03-02T16:05:07.811Z,17.80
2019-03-02T16:07:43.024Z,20.70
2019-03-02T16:10:43.574Z,16.77
2019-03-02T16:13:24.395Z,11.73
2019-03-02T16:16:12.136Z,13.37
2019-03-02T16:18:56.928Z,14.37
2019-03-02T16:21:34.920Z,9.73
2019-03-02T16:24:35.505Z,11.40
2019-03-02T16:27:31.391Z,10.50
2019-03-02T16:30:28.130Z,11.93
2019-03-02T16:33:15.630Z,12.50
2019-03-02T16:36:09.324Z,11.03
2019-03-02T16:39:08.063Z,14.73
2019-03-02T16:41:55.566Z,15.07
2019-03-02T16:44:39.309Z,13.10
2019-03-02T16:47:31.088Z,13.73
2019-03-02T16:50:16.567Z,17.43
2019-03-02T16:53:01.815Z,15.63
2019-03-02T16:55:49.024Z,13.03
2019-03-02T16:58:25.296Z,17.97
2019-03-02T17:01:13.995Z,14.40
2019-03-02T17:03:55.696Z,13.90
2019-03-02T17:06:47.283Z,13.93
2019-03-02T17:09:31.675Z,13.47
2019-03-02T17:12:15.893Z,11.37
2019-03-02T17:15:02.307Z,12.87
2019-03-02T17:18:02.821Z,11.43
2019-03-02T17:20:51.535Z,9.37
2019-03-02T17:23:45.916Z,14.47
2019-03-02T17:26:33.052Z,15.33
2019-03-02T17:29:30.747Z,16.83
2019-03-02T17:32:25.707Z,11.30
2019-03-02T17:35:04.363Z,10.07
2019-03-02T17:37:56.721Z,12.30
2019-03-02T17:40:56.090Z,13.63
2019-03-02T17:43:47.693Z,8.57
2019-03-02T17:46:42.516Z,9.87
2019-03-02T17:49:31.673Z,8.93
2019-03-02T17:52:14.290Z,8.07
2019-03-02T17:55:15.027Z,9.90
2019-03-02T17:58:06.324Z,8.43
2019-03-02T18:00:57.789Z,7.50
2019-03-02T18:03:50.292Z,9.67
2019-03-02T18:06:29.986Z,12.63
2019-03-02T18:09:06.715Z,10.13
2019-03-02T18:11:50.476Z,9.73
2019-03-02T18:14:32.773Z,11.57
2019-03-02T18:17:27.564Z,13.00
2019-03-02T18:19:57.182Z,8.33
2019-03-02T18:22:26.816Z,9.33
2019-03-02T18:24:56.442Z,9.77
2019-03-02T18:27:26.206Z,15.17
2019-03-02T18:29:56.331Z,9.63
2019-03-02T18:32:30.213Z,8.70
2019-03-02T18:34:59.964Z,9.13
2019-03-02T18:37:30.663Z,12.80
2019-03-02T18:40:02.518Z,8.40
2019-03-02T18:42:31.873Z,11.80
2019-03-02T18:45:04.412Z,14.07
2019-03-02T18:47:32.919Z,9.77
2019-03-02T18:50:28.830Z,9.23
2019-03-02T18:53:06.573Z,11.43
2019-03-02T18:55:36.267Z,11.13
2019-03-02T18:58:07.764Z,11.63
2019-03-02T19:00:40.770Z,10.73
2019-03-02T19:03:11.072Z,18.23
2019-03-02T19:05:40.760Z,11.57
2019-03-02T19:08:11.649Z,14.20
2019-03-02T19:10:43.268Z,13.17
2019-03-02T19:13:13.307Z,12.53
2019-03-02T19:15:43.032Z,14.13
2019-03-02T19:18:13.263Z,11.83
2019-03-02T19:20:42.957Z,14.17
2019-03-02T19:23:12.571Z,13.00
2019-03-02T19:25:42.236Z,13.17
2019-03-02T19:28:11.916Z,13.00
2019-03-02T19:30:41.876Z,11.90
2019-03-02T19:33:11.555Z,13.10
2019-03-02T19:35:41.214Z,14.53
2019-03-02T19:38:10.914Z,8.90
2019-03-02T19:40:40.608Z,13.80
2019-03-02T19:43:10.597Z,16.77
2019-03-02T19:45:40.236Z,22.43
2019-03-02T19:48:10.300Z,11.53
2019-03-02T19:50:40.264Z,11.90
2019-03-02T19:53:09.940Z,10.57
2019-03-02T19:55:39.599Z,13.33
2019-03-02T19:58:09.274Z,10.93
2019-03-02T20:00:38.892Z,13.70
2019-03-02T20:03:08.654Z,20.00
2019-03-02T20:05:38.316Z,10.80
2019-03-02T20:08:08.632Z,18.40
2019-03-02T20:10:38.696Z,9.27
2019-03-02T20:13:08.356Z,13.27
2019-03-02T20:15:38.064Z,13.70
2019-03-02T20:18:07.781Z,9.40
2019-03-02T20:20:37.433Z,11.03
2019-03-02T20:23:07.065Z,9.63
2019-03-02T20:25:36.688Z,10.60
2019-03-02T20:28:06.338Z,16.00
2019-03-02T20:30:35.953Z,12.73
2019-03-02T20:33:05.577Z,12.33
2019-03-02T20:35:35.767Z,9.10
2019-03-02T20:38:05.844Z,12.40
2019-03-02T20:40:35.540Z,13.23
2019-03-02T20:43:05.188Z,10.00
2019-03-02T20:45:34.825Z,11.20
2019-03-02T20:48:04.643Z,12.13
2019-03-02T20:50:34.289Z,14.37
2019-03-02T20:53:03.892Z,12.07
2019-03-02T20:55:33.596Z,12.53
2019-03-02T20:58:03.230Z,10.40
2019-03-02T21:00:32.963Z,10.10
2019-03-02T21:03:02.725Z,13.23
2019-03-02T21:05:32.857Z,10.13
2019-03-02T21:08:02.480Z,10.40
2019-03-02T21:10:32.327Z,12.27
2019-03-02T21:13:01.983Z,12.87
2019-03-02T21:15:34.056Z,14.73
2019-03-02T21:18:03.950Z,9.87
2019-03-02T21:20:33.787Z,11.80
2019-03-02T21:23:03.948Z,15.40
2019-03-02T21:25:33.560Z,14.13
2019-03-02T21:28:03.879Z,10.03
2019-03-02T21:30:33.500Z,10.03
2019-03-02T21:33:03.188Z,14.10
2019-03-02T21:35:32.849Z,11.93
2019-03-02T21:38:02.776Z,14.00
2019-03-02T21:40:32.520Z,10.80
2019-03-02T21:43:02.791Z,22.13
2019-03-02T21:45:32.567Z,9.30
2019-03-02T21:48:02.317Z,13.00
2019-03-02T21:50:32.090Z,12.63
2019-03-02T21:53:01.953Z,13.40
2019-03-02T21:55:31.596Z,10.93
2019-03-02T21:58:01.221Z,14.17
2019-03-02T22:00:31.379Z,12.50
2019-03-02T22:03:01.014Z,12.60
2019-03-02T22:05:30.622Z,13.10
2019-03-02T22:08:00.235Z,13.40
2019-03-02T22:10:42.141Z,10.80
2019-03-02T22:13:11.824Z,15.70
2019-03-02T22:15:41.432Z,16.30
2019-03-02T22:18:11.057Z,12.63
2019-03-02T22:20:40.679Z,12.67
2019-03-02T22:23:10.290Z,15.77
2019-03-02T22:25:39.915Z,12.60
2019-03-02T22:28:09.544Z,13.30
2019-03-02T22:30:39.211Z,12.53
2019-03-02T22:33:08.838Z,18.20
2019-03-02T22:35:38.447Z,15.37
2019-03-02T22:38:08.071Z,15.47
2019-03-02T22:40:37.706Z,17.17
2019-03-02T22:43:07.408Z,15.07
2019-03-02T22:45:37.087Z,15.07
2019-03-02T22:48:06.717Z,21.43
2019-03-02T22:50:36.324Z,19.17
2019-03-02T22:53:06.004Z,16.00
2019-03-02T22:55:35.631Z,16.33
2019-03-02T22:58:05.324Z,19.43
2019-03-02T23:01:14.078Z,18.70
2019-03-02T23:03:41.933Z,15.57
2019-03-02T23:06:11.551Z,13.13
2019-03-02T23:08:41.166Z,12.33
2019-03-02T23:11:10.781Z,16.43
2019-03-02T23:13:40.384Z,11.83
2019-03-02T23:16:10.131Z,14.43
2019-03-02T23:18:39.751Z,15.10
2019-03-02T23:21:09.360Z,11.13
2019-03-02T23:23:39.008Z,14.97
2019-03-02T23:26:08.613Z,13.33
2019-03-02T23:28:38.259Z,16.37
2019-03-02T23:31:08.584Z,14.47
2019-03-02T23:33:38.224Z,13.53
2019-03-02T23:36:07.816Z,14.63
2019-03-02T23:38:37.444Z,11.97
2019-03-02T23:41:07.389Z,14.80
2019-03-02T23:43:37.024Z,12.17
2019-03-02T23:46:06.708Z,13.97
2019-03-02T23:48:36.376Z,15.47
2019-03-02T23:51:05.967Z,14.43
2019-03-02T23:53:35.656Z,21.07
2019-03-02T23:56:05.363Z,13.70
2019-03-02T23:58:34.975Z,14.17
